sensor_id;sensor_type;location;lat;lon;timestamp;P1;durP1;ratioP1;P2;durP2;ratioP2
61572;SDS011;47465;43.094;12.434;2023-03-24T00:00:14;12.70;;;9.07;;
61572;SDS011;47465;43.094;12.434;2023-03-24T00:02:48;16.35;;;9.65;;
61572;SDS011;47465;43.094;12.434;2023-03-24T00:05:16;15.35;;;9.77;;
61572;SDS011;47465;43.094;12.434;2023-03-24T00:07:45;12.35;;;8.68;;
61572;SDS011;47465;43.094;12.434;2023-03-24T00:10:12;15.65;;;9.52;;
61572;SDS011;47465;43.094;12.434;2023-03-24T00:12:42;14.30;;;9.38;;
61572;SDS011;47465;43.094;12.434;2023-03-24T00:15:13;16.75;;;9.30;;
61572;SDS011;47465;43.094;12.434;2023-03-24T00:17:43;15.82;;;9.60;;
61572;SDS011;47465;43.094;12.434;2023-03-24T00:20:14;14.40;;;9.82;;
61572;SDS011;47465;43.094;12.434;2023-03-24T00:22:43;15.25;;;10.68;;
61572;SDS011;47465;43.094;12.434;2023-03-24T00:25:15;15.63;;;10.35;;
61572;SDS011;47465;43.094;12.434;2023-03-24T00:27:43;16.90;;;10.98;;
61572;SDS011;47465;43.094;12.434;2023-03-24T00:32:41;15.57;;;10.30;;
61572;SDS011;47465;43.094;12.434;2023-03-24T00:37:40;18.58;;;11.30;;
61572;SDS011;47465;43.094;12.434;2023-03-24T00:40:10;17.05;;;10.95;;
61572;SDS011;47465;43.094;12.434;2023-03-24T00:42:42;18.77;;;11.93;;
61572;SDS011;47465;43.094;12.434;2023-03-24T00:45:11;19.50;;;11.93;;
61572;SDS011;47465;43.094;12.434;2023-03-24T00:47:42;17.60;;;11.60;;
61572;SDS011;47465;43.094;12.434;2023-03-24T00:50:13;17.95;;;12.13;;
61572;SDS011;47465;43.094;12.434;2023-03-24T00:52:41;19.15;;;12.07;;
61572;SDS011;47465;43.094;12.434;2023-03-24T00:55:12;19.13;;;11.82;;
61572;SDS011;47465;43.094;12.434;2023-03-24T00:57:40;18.45;;;11.80;;
61572;SDS011;47465;43.094;12.434;2023-03-24T01:00:17;22.10;;;11.55;;
61572;SDS011;47465;43.094;12.434;2023-03-24T01:02:45;19.60;;;12.05;;
61572;SDS011;47465;43.094;12.434;2023-03-24T01:05:14;19.65;;;12.73;;
61572;SDS011;47465;43.094;12.434;2023-03-24T01:07:42;18.95;;;11.80;;
61572;SDS011;47465;43.094;12.434;2023-03-24T01:10:10;18.85;;;11.70;;
61572;SDS011;47465;43.094;12.434;2023-03-24T01:12:37;16.38;;;11.68;;
61572;SDS011;47465;43.094;12.434;2023-03-24T01:15:08;18.85;;;12.23;;
61572;SDS011;47465;43.094;12.434;2023-03-24T01:17:40;19.42;;;12.38;;
61572;SDS011;47465;43.094;12.434;2023-03-24T01:20:08;19.77;;;12.25;;
61572;SDS011;47465;43.094;12.434;2023-03-24T01:22:37;20.10;;;12.75;;
61572;SDS011;47465;43.094;12.434;2023-03-24T01:27:31;20.38;;;12.85;;
61572;SDS011;47465;43.094;12.434;2023-03-24T01:29:58;18.45;;;12.38;;
61572;SDS011;47465;43.094;12.434;2023-03-24T01:32:25;19.55;;;12.88;;
61572;SDS011;47465;43.094;12.434;2023-03-24T01:34:56;18.08;;;12.45;;
61572;SDS011;47465;43.094;12.434;2023-03-24T01:37:22;21.92;;;13.38;;
61572;SDS011;47465;43.094;12.434;2023-03-24T01:39:50;23.23;;;13.80;;
61572;SDS011;47465;43.094;12.434;2023-03-24T01:42:16;18.73;;;12.52;;
61572;SDS011;47465;43.094;12.434;2023-03-24T01:44:44;20.55;;;14.18;;
61572;SDS011;47465;43.094;12.434;2023-03-24T01:47:11;20.42;;;13.52;;
61572;SDS011;47465;43.094;12.434;2023-03-24T01:49:38;21.42;;;13.45;;
61572;SDS011;47465;43.094;12.434;2023-03-24T01:52:09;20.10;;;13.38;;
61572;SDS011;47465;43.094;12.434;2023-03-24T01:54:43;20.63;;;14.10;;
61572;SDS011;47465;43.094;12.434;2023-03-24T01:57:16;24.98;;;14.80;;
61572;SDS011;47465;43.094;12.434;2023-03-24T01:59:47;23.10;;;13.52;;
61572;SDS011;47465;43.094;12.434;2023-03-24T02:02:15;20.13;;;13.23;;
61572;SDS011;47465;43.094;12.434;2023-03-24T02:04:42;21.08;;;12.82;;
61572;SDS011;47465;43.094;12.434;2023-03-24T02:07:15;20.08;;;13.43;;
61572;SDS011;47465;43.094;12.434;2023-03-24T02:09:46;18.83;;;13.00;;
61572;SDS011;47465;43.094;12.434;2023-03-24T02:12:16;21.38;;;12.77;;
61572;SDS011;47465;43.094;12.434;2023-03-24T02:14:43;21.70;;;12.68;;
61572;SDS011;47465;43.094;12.434;2023-03-24T02:20:25;22.45;;;12.18;;
61572;SDS011;47465;43.094;12.434;2023-03-24T02:23:15;21.50;;;11.52;;
61572;SDS011;47465;43.094;12.434;2023-03-24T02:26:02;19.55;;;11.88;;
61572;SDS011;47465;43.094;12.434;2023-03-24T02:28:48;19.38;;;12.25;;
61572;SDS011;47465;43.094;12.434;2023-03-24T02:31:33;18.05;;;12.15;;
61572;SDS011;47465;43.094;12.434;2023-03-24T02:37:40;15.75;;;10.77;;
61572;SDS011;47465;43.094;12.434;2023-03-24T02:43:01;17.52;;;11.48;;
61572;SDS011;47465;43.094;12.434;2023-03-24T02:45:41;18.63;;;11.70;;
61572;SDS011;47465;43.094;12.434;2023-03-24T02:48:20;19.83;;;12.07;;
61572;SDS011;47465;43.094;12.434;2023-03-24T02:50:53;19.05;;;12.15;;
61572;SDS011;47465;43.094;12.434;2023-03-24T02:53:29;21.65;;;12.88;;
61572;SDS011;47465;43.094;12.434;2023-03-24T02:56:06;20.85;;;12.05;;
61572;SDS011;47465;43.094;12.434;2023-03-24T02:58:37;20.77;;;13.02;;
61572;SDS011;47465;43.094;12.434;2023-03-24T03:01:12;21.92;;;13.82;;
61572;SDS011;47465;43.094;12.434;2023-03-24T03:03:44;20.95;;;13.13;;
61572;SDS011;47465;43.094;12.434;2023-03-24T03:06:14;21.15;;;12.05;;
61572;SDS011;47465;43.094;12.434;2023-03-24T03:08:45;21.58;;;12.27;;
61572;SDS011;47465;43.094;12.434;2023-03-24T03:11:15;20.67;;;13.25;;
61572;SDS011;47465;43.094;12.434;2023-03-24T03:13:43;20.88;;;12.50;;
61572;SDS011;47465;43.094;12.434;2023-03-24T03:16:17;21.45;;;12.98;;
61572;SDS011;47465;43.094;12.434;2023-03-24T03:18:50;20.88;;;12.93;;
61572;SDS011;47465;43.094;12.434;2023-03-24T03:21:24;20.85;;;12.88;;
61572;SDS011;47465;43.094;12.434;2023-03-24T03:23:56;20.40;;;13.23;;
61572;SDS011;47465;43.094;12.434;2023-03-24T03:26:28;21.45;;;13.05;;
61572;SDS011;47465;43.094;12.434;2023-03-24T03:28:57;21.13;;;13.07;;
61572;SDS011;47465;43.094;12.434;2023-03-24T03:31:31;21.33;;;12.07;;
61572;SDS011;47465;43.094;12.434;2023-03-24T03:34:07;20.92;;;12.50;;
61572;SDS011;47465;43.094;12.434;2023-03-24T03:36:40;19.90;;;11.38;;
61572;SDS011;47465;43.094;12.434;2023-03-24T03:39:18;20.88;;;12.38;;
61572;SDS011;47465;43.094;12.434;2023-03-24T03:41:53;18.77;;;12.57;;
61572;SDS011;47465;43.094;12.434;2023-03-24T03:44:22;18.70;;;11.73;;
61572;SDS011;47465;43.094;12.434;2023-03-24T03:46:48;20.13;;;12.75;;
61572;SDS011;47465;43.094;12.434;2023-03-24T03:49:14;21.98;;;13.05;;
61572;SDS011;47465;43.094;12.434;2023-03-24T03:51:40;22.80;;;13.40;;
61572;SDS011;47465;43.094;12.434;2023-03-24T03:54:07;22.10;;;13.07;;
61572;SDS011;47465;43.094;12.434;2023-03-24T03:56:36;20.50;;;12.80;;
61572;SDS011;47465;43.094;12.434;2023-03-24T03:59:21;23.05;;;13.68;;
61572;SDS011;47465;43.094;12.434;2023-03-24T04:01:53;21.05;;;13.68;;
61572;SDS011;47465;43.094;12.434;2023-03-24T04:07:14;22.38;;;14.35;;
61572;SDS011;47465;43.094;12.434;2023-03-24T04:09:51;24.83;;;14.60;;
61572;SDS011;47465;43.094;12.434;2023-03-24T04:12:30;24.77;;;14.98;;
61572;SDS011;47465;43.094;12.434;2023-03-24T04:18:10;23.15;;;14.40;;
61572;SDS011;47465;43.094;12.434;2023-03-24T04:20:45;23.77;;;14.50;;
61572;SDS011;47465;43.094;12.434;2023-03-24T04:23:19;20.33;;;13.48;;
61572;SDS011;47465;43.094;12.434;2023-03-24T04:25:56;22.13;;;13.95;;
61572;SDS011;47465;43.094;12.434;2023-03-24T04:28:32;23.52;;;13.13;;
61572;SDS011;47465;43.094;12.434;2023-03-24T04:31:08;22.45;;;13.48;;
61572;SDS011;47465;43.094;12.434;2023-03-24T04:33:45;21.40;;;14.05;;
61572;SDS011;47465;43.094;12.434;2023-03-24T04:36:18;24.40;;;14.50;;
61572;SDS011;47465;43.094;12.434;2023-03-24T04:38:54;22.05;;;14.32;;
61572;SDS011;47465;43.094;12.434;2023-03-24T04:41:22;23.92;;;14.38;;
61572;SDS011;47465;43.094;12.434;2023-03-24T04:43:51;26.67;;;15.02;;
61572;SDS011;47465;43.094;12.434;2023-03-24T04:46:35;21.80;;;13.63;;
61572;SDS011;47465;43.094;12.434;2023-03-24T04:49:02;23.75;;;13.85;;
61572;SDS011;47465;43.094;12.434;2023-03-24T04:51:30;22.63;;;13.13;;
61572;SDS011;47465;43.094;12.434;2023-03-24T04:56:29;20.52;;;12.73;;
61572;SDS011;47465;43.094;12.434;2023-03-24T04:59:05;20.02;;;12.63;;
61572;SDS011;47465;43.094;12.434;2023-03-24T05:01:33;20.98;;;13.13;;
61572;SDS011;47465;43.094;12.434;2023-03-24T05:04:01;20.45;;;12.60;;
61572;SDS011;47465;43.094;12.434;2023-03-24T05:06:30;23.27;;;13.48;;
61572;SDS011;47465;43.094;12.434;2023-03-24T05:08:58;23.50;;;13.35;;
61572;SDS011;47465;43.094;12.434;2023-03-24T05:11:24;21.48;;;13.15;;
61572;SDS011;47465;43.094;12.434;2023-03-24T05:13:52;21.63;;;13.45;;
61572;SDS011;47465;43.094;12.434;2023-03-24T05:16:18;23.33;;;13.25;;
61572;SDS011;47465;43.094;12.434;2023-03-24T05:18:48;24.35;;;14.35;;
61572;SDS011;47465;43.094;12.434;2023-03-24T05:21:14;23.17;;;13.77;;
61572;SDS011;47465;43.094;12.434;2023-03-24T05:23:40;23.90;;;13.55;;
61572;SDS011;47465;43.094;12.434;2023-03-24T05:26:06;24.05;;;12.80;;
61572;SDS011;47465;43.094;12.434;2023-03-24T05:28:36;20.30;;;12.88;;
61572;SDS011;47465;43.094;12.434;2023-03-24T05:31:02;22.25;;;13.32;;
61572;SDS011;47465;43.094;12.434;2023-03-24T05:33:31;20.48;;;11.43;;
61572;SDS011;47465;43.094;12.434;2023-03-24T05:35:58;18.90;;;11.95;;
61572;SDS011;47465;43.094;12.434;2023-03-24T05:38:25;22.40;;;13.27;;
61572;SDS011;47465;43.094;12.434;2023-03-24T05:40:50;18.50;;;12.30;;
61572;SDS011;47465;43.094;12.434;2023-03-24T05:43:16;18.98;;;12.07;;
61572;SDS011;47465;43.094;12.434;2023-03-24T05:45:42;19.92;;;12.30;;
61572;SDS011;47465;43.094;12.434;2023-03-24T05:48:08;18.80;;;12.27;;
61572;SDS011;47465;43.094;12.434;2023-03-24T05:50:34;20.73;;;11.90;;
61572;SDS011;47465;43.094;12.434;2023-03-24T05:53:02;19.42;;;11.98;;
61572;SDS011;47465;43.094;12.434;2023-03-24T05:55:28;19.65;;;12.70;;
61572;SDS011;47465;43.094;12.434;2023-03-24T05:57:55;17.83;;;11.90;;
61572;SDS011;47465;43.094;12.434;2023-03-24T06:00:21;29.65;;;16.77;;
61572;SDS011;47465;43.094;12.434;2023-03-24T06:02:47;25.80;;;16.45;;
61572;SDS011;47465;43.094;12.434;2023-03-24T06:05:14;21.95;;;14.00;;
61572;SDS011;47465;43.094;12.434;2023-03-24T06:07:40;23.52;;;14.95;;
61572;SDS011;47465;43.094;12.434;2023-03-24T06:10:08;21.52;;;14.57;;
61572;SDS011;47465;43.094;12.434;2023-03-24T06:12:35;22.85;;;14.25;;
61572;SDS011;47465;43.094;12.434;2023-03-24T06:15:02;28.35;;;15.30;;
61572;SDS011;47465;43.094;12.434;2023-03-24T06:17:31;25.50;;;16.23;;
61572;SDS011;47465;43.094;12.434;2023-03-24T06:19:58;27.20;;;16.15;;
61572;SDS011;47465;43.094;12.434;2023-03-24T06:22:30;28.63;;;16.20;;
61572;SDS011;47465;43.094;12.434;2023-03-24T06:24:57;27.48;;;15.75;;
61572;SDS011;47465;43.094;12.434;2023-03-24T06:27:25;25.52;;;14.32;;
61572;SDS011;47465;43.094;12.434;2023-03-24T06:29:54;22.15;;;14.90;;
61572;SDS011;47465;43.094;12.434;2023-03-24T06:32:21;24.25;;;16.15;;
61572;SDS011;47465;43.094;12.434;2023-03-24T06:34:47;24.02;;;14.77;;
61572;SDS011;47465;43.094;12.434;2023-03-24T06:37:13;22.58;;;14.30;;
61572;SDS011;47465;43.094;12.434;2023-03-24T06:39:40;26.25;;;14.73;;
61572;SDS011;47465;43.094;12.434;2023-03-24T06:42:09;22.48;;;14.32;;
61572;SDS011;47465;43.094;12.434;2023-03-24T06:47:07;21.35;;;13.40;;
61572;SDS011;47465;43.094;12.434;2023-03-24T06:49:32;21.33;;;14.50;;
61572;SDS011;47465;43.094;12.434;2023-03-24T06:51:59;22.38;;;13.90;;
61572;SDS011;47465;43.094;12.434;2023-03-24T06:54:26;21.45;;;14.02;;
61572;SDS011;47465;43.094;12.434;2023-03-24T06:56:52;23.50;;;14.00;;
61572;SDS011;47465;43.094;12.434;2023-03-24T06:59:18;23.70;;;14.27;;
61572;SDS011;47465;43.094;12.434;2023-03-24T07:01:49;20.45;;;13.57;;
61572;SDS011;47465;43.094;12.434;2023-03-24T07:04:16;22.42;;;13.48;;
61572;SDS011;47465;43.094;12.434;2023-03-24T07:06:42;19.27;;;13.50;;
61572;SDS011;47465;43.094;12.434;2023-03-24T07:09:08;18.27;;;13.25;;
61572;SDS011;47465;43.094;12.434;2023-03-24T07:11:34;27.67;;;14.35;;
61572;SDS011;47465;43.094;12.434;2023-03-24T07:14:01;31.85;;;14.77;;
61572;SDS011;47465;43.094;12.434;2023-03-24T07:16:28;30.27;;;13.80;;
61572;SDS011;47465;43.094;12.434;2023-03-24T07:18:56;26.80;;;14.55;;
61572;SDS011;47465;43.094;12.434;2023-03-24T07:21:22;26.80;;;14.43;;
61572;SDS011;47465;43.094;12.434;2023-03-24T07:23:48;25.77;;;13.55;;
61572;SDS011;47465;43.094;12.434;2023-03-24T07:26:14;24.50;;;13.80;;
61572;SDS011;47465;43.094;12.434;2023-03-24T07:28:40;24.70;;;14.98;;
61572;SDS011;47465;43.094;12.434;2023-03-24T07:31:06;23.60;;;15.00;;
61572;SDS011;47465;43.094;12.434;2023-03-24T07:33:35;29.80;;;13.60;;
61572;SDS011;47465;43.094;12.434;2023-03-24T07:36:03;22.10;;;13.60;;
61572;SDS011;47465;43.094;12.434;2023-03-24T07:38:31;22.75;;;13.50;;
61572;SDS011;47465;43.094;12.434;2023-03-24T07:40:58;25.17;;;13.57;;
61572;SDS011;47465;43.094;12.434;2023-03-24T07:43:24;22.08;;;13.02;;
61572;SDS011;47465;43.094;12.434;2023-03-24T07:45:54;19.63;;;13.40;;
61572;SDS011;47465;43.094;12.434;2023-03-24T07:50:47;25.77;;;14.05;;
61572;SDS011;47465;43.094;12.434;2023-03-24T07:53:14;19.35;;;12.27;;
61572;SDS011;47465;43.094;12.434;2023-03-24T07:55:44;25.48;;;13.77;;
61572;SDS011;47465;43.094;12.434;2023-03-24T07:58:10;21.70;;;13.27;;
61572;SDS011;47465;43.094;12.434;2023-03-24T08:00:36;21.77;;;13.90;;
61572;SDS011;47465;43.094;12.434;2023-03-24T08:03:03;22.40;;;14.32;;
61572;SDS011;47465;43.094;12.434;2023-03-24T08:05:29;21.10;;;13.70;;
61572;SDS011;47465;43.094;12.434;2023-03-24T08:07:55;21.60;;;13.05;;
61572;SDS011;47465;43.094;12.434;2023-03-24T08:10:24;21.15;;;13.43;;
61572;SDS011;47465;43.094;12.434;2023-03-24T08:12:52;20.17;;;13.65;;
61572;SDS011;47465;43.094;12.434;2023-03-24T08:15:18;21.33;;;12.38;;
61572;SDS011;47465;43.094;12.434;2023-03-24T08:17:45;18.67;;;12.38;;
61572;SDS011;47465;43.094;12.434;2023-03-24T08:20:12;21.27;;;12.57;;
61572;SDS011;47465;43.094;12.434;2023-03-24T08:22:43;18.95;;;11.95;;
61572;SDS011;47465;43.094;12.434;2023-03-24T08:25:14;19.75;;;12.23;;
61572;SDS011;47465;43.094;12.434;2023-03-24T08:27:43;19.10;;;12.50;;
61572;SDS011;47465;43.094;12.434;2023-03-24T08:30:10;17.13;;;11.75;;
61572;SDS011;47465;43.094;12.434;2023-03-24T08:32:42;17.45;;;11.85;;
61572;SDS011;47465;43.094;12.434;2023-03-24T08:35:09;21.45;;;11.98;;
61572;SDS011;47465;43.094;12.434;2023-03-24T08:37:36;17.02;;;11.35;;
61572;SDS011;47465;43.094;12.434;2023-03-24T08:40:03;18.83;;;12.23;;
61572;SDS011;47465;43.094;12.434;2023-03-24T08:42:32;18.58;;;11.75;;
61572;SDS011;47465;43.094;12.434;2023-03-24T08:44:59;19.27;;;11.75;;
61572;SDS011;47465;43.094;12.434;2023-03-24T08:47:25;21.77;;;13.98;;
61572;SDS011;47465;43.094;12.434;2023-03-24T08:49:54;17.83;;;12.48;;
61572;SDS011;47465;43.094;12.434;2023-03-24T08:52:21;18.73;;;11.43;;
61572;SDS011;47465;43.094;12.434;2023-03-24T08:54:47;22.42;;;12.40;;
61572;SDS011;47465;43.094;12.434;2023-03-24T08:57:13;17.60;;;11.85;;
61572;SDS011;47465;43.094;12.434;2023-03-24T08:59:40;20.00;;;11.70;;
61572;SDS011;47465;43.094;12.434;2023-03-24T09:02:08;19.75;;;11.95;;
61572;SDS011;47465;43.094;12.434;2023-03-24T09:04:35;16.65;;;11.70;;
61572;SDS011;47465;43.094;12.434;2023-03-24T09:07:01;18.30;;;10.95;;
61572;SDS011;47465;43.094;12.434;2023-03-24T09:09:28;18.77;;;11.30;;
61572;SDS011;47465;43.094;12.434;2023-03-24T09:11:54;20.77;;;11.80;;
61572;SDS011;47465;43.094;12.434;2023-03-24T09:14:20;16.17;;;11.50;;
61572;SDS011;47465;43.094;12.434;2023-03-24T09:16:47;16.60;;;10.82;;
61572;SDS011;47465;43.094;12.434;2023-03-24T09:19:15;17.65;;;11.65;;
61572;SDS011;47465;43.094;12.434;2023-03-24T09:21:43;16.75;;;11.13;;
61572;SDS011;47465;43.094;12.434;2023-03-24T09:24:13;17.05;;;12.25;;
61572;SDS011;47465;43.094;12.434;2023-03-24T09:26:40;15.38;;;10.63;;
61572;SDS011;47465;43.094;12.434;2023-03-24T09:29:09;16.60;;;10.40;;
61572;SDS011;47465;43.094;12.434;2023-03-24T09:31:36;15.07;;;10.10;;
61572;SDS011;47465;43.094;12.434;2023-03-24T09:34:02;16.20;;;9.77;;
61572;SDS011;47465;43.094;12.434;2023-03-24T09:36:30;16.77;;;10.45;;
61572;SDS011;47465;43.094;12.434;2023-03-24T09:38:56;13.43;;;9.60;;
61572;SDS011;47465;43.094;12.434;2023-03-24T09:41:23;17.15;;;9.38;;
61572;SDS011;47465;43.094;12.434;2023-03-24T09:43:53;13.50;;;9.15;;
61572;SDS011;47465;43.094;12.434;2023-03-24T09:46:25;14.02;;;9.95;;
61572;SDS011;47465;43.094;12.434;2023-03-24T09:48:56;13.02;;;8.48;;
61572;SDS011;47465;43.094;12.434;2023-03-24T09:51:23;12.23;;;9.20;;
61572;SDS011;47465;43.094;12.434;2023-03-24T09:53:53;12.98;;;8.80;;
61572;SDS011;47465;43.094;12.434;2023-03-24T09:56:28;10.90;;;7.18;;
61572;SDS011;47465;43.094;12.434;2023-03-24T09:59:01;12.18;;;8.43;;
61572;SDS011;47465;43.094;12.434;2023-03-24T10:01:30;15.05;;;8.07;;
61572;SDS011;47465;43.094;12.434;2023-03-24T10:03:58;11.77;;;7.45;;
61572;SDS011;47465;43.094;12.434;2023-03-24T10:06:25;9.55;;;6.70;;
61572;SDS011;47465;43.094;12.434;2023-03-24T10:08:57;11.80;;;6.18;;
61572;SDS011;47465;43.094;12.434;2023-03-24T10:11:41;8.05;;;6.20;;
61572;SDS011;47465;43.094;12.434;2023-03-24T10:14:21;10.93;;;6.97;;
61572;SDS011;47465;43.094;12.434;2023-03-24T10:17:10;9.55;;;6.28;;
61572;SDS011;47465;43.094;12.434;2023-03-24T10:19:47;10.73;;;5.63;;
61572;SDS011;47465;43.094;12.434;2023-03-24T10:22:27;10.48;;;5.68;;
61572;SDS011;47465;43.094;12.434;2023-03-24T10:25:00;8.95;;;5.97;;
61572;SDS011;47465;43.094;12.434;2023-03-24T10:27:33;12.18;;;7.18;;
61572;SDS011;47465;43.094;12.434;2023-03-24T10:30:05;10.00;;;5.82;;
61572;SDS011;47465;43.094;12.434;2023-03-24T10:32:40;9.38;;;5.70;;
61572;SDS011;47465;43.094;12.434;2023-03-24T10:35:13;9.65;;;5.88;;
61572;SDS011;47465;43.094;12.434;2023-03-24T10:37:42;8.23;;;5.93;;
61572;SDS011;47465;43.094;12.434;2023-03-24T10:40:17;9.95;;;6.05;;
61572;SDS011;47465;43.094;12.434;2023-03-24T10:42:45;10.07;;;6.00;;
61572;SDS011;47465;43.094;12.434;2023-03-24T10:45:16;7.13;;;5.35;;
61572;SDS011;47465;43.094;12.434;2023-03-24T10:47:49;8.48;;;5.32;;
61572;SDS011;47465;43.094;12.434;2023-03-24T10:50:17;9.30;;;5.53;;
61572;SDS011;47465;43.094;12.434;2023-03-24T10:52:51;9.07;;;5.40;;
61572;SDS011;47465;43.094;12.434;2023-03-24T10:55:22;7.50;;;5.37;;
61572;SDS011;47465;43.094;12.434;2023-03-24T10:57:56;8.07;;;5.50;;
61572;SDS011;47465;43.094;12.434;2023-03-24T11:00:25;8.13;;;5.43;;
61572;SDS011;47465;43.094;12.434;2023-03-24T11:02:55;8.40;;;6.05;;
61572;SDS011;47465;43.094;12.434;2023-03-24T11:05:25;7.97;;;5.80;;
61572;SDS011;47465;43.094;12.434;2023-03-24T11:07:56;8.35;;;5.30;;
61572;SDS011;47465;43.094;12.434;2023-03-24T11:10:37;9.38;;;5.72;;
61572;SDS011;47465;43.094;12.434;2023-03-24T11:13:13;9.77;;;5.85;;
61572;SDS011;47465;43.094;12.434;2023-03-24T11:15:51;8.70;;;5.60;;
61572;SDS011;47465;43.094;12.434;2023-03-24T11:18:31;9.60;;;5.95;;
61572;SDS011;47465;43.094;12.434;2023-03-24T11:20:59;8.35;;;5.40;;
61572;SDS011;47465;43.094;12.434;2023-03-24T11:23:30;8.15;;;5.68;;
61572;SDS011;47465;43.094;12.434;2023-03-24T11:26:07;7.60;;;5.18;;
61572;SDS011;47465;43.094;12.434;2023-03-24T11:28:39;9.05;;;5.47;;
61572;SDS011;47465;43.094;12.434;2023-03-24T11:31:08;9.68;;;4.95;;
61572;SDS011;47465;43.094;12.434;2023-03-24T11:33:44;8.05;;;4.65;;
61572;SDS011;47465;43.094;12.434;2023-03-24T11:36:39;9.45;;;5.25;;
61572;SDS011;47465;43.094;12.434;2023-03-24T11:39:13;7.50;;;5.53;;
61572;SDS011;47465;43.094;12.434;2023-03-24T11:41:54;10.30;;;5.50;;
61572;SDS011;47465;43.094;12.434;2023-03-24T11:44:31;8.00;;;6.03;;
61572;SDS011;47465;43.094;12.434;2023-03-24T11:47:07;8.82;;;5.82;;
61572;SDS011;47465;43.094;12.434;2023-03-24T11:49:43;9.45;;;6.10;;
61572;SDS011;47465;43.094;12.434;2023-03-24T11:52:16;8.52;;;5.22;;
61572;SDS011;47465;43.094;12.434;2023-03-24T11:54:48;9.32;;;5.00;;
61572;SDS011;47465;43.094;12.434;2023-03-24T11:57:17;5.93;;;4.40;;
61572;SDS011;47465;43.094;12.434;2023-03-24T11:59:57;9.05;;;5.50;;
61572;SDS011;47465;43.094;12.434;2023-03-24T12:02:34;8.82;;;5.60;;
61572;SDS011;47465;43.094;12.434;2023-03-24T12:05:21;8.82;;;5.22;;
61572;SDS011;47465;43.094;12.434;2023-03-24T12:07:58;6.55;;;4.55;;
61572;SDS011;47465;43.094;12.434;2023-03-24T12:10:45;7.00;;;4.60;;
61572;SDS011;47465;43.094;12.434;2023-03-24T12:13:32;8.02;;;4.85;;
61572;SDS011;47465;43.094;12.434;2023-03-24T12:16:08;8.98;;;5.53;;
61572;SDS011;47465;43.094;12.434;2023-03-24T12:19:02;9.45;;;5.20;;
61572;SDS011;47465;43.094;12.434;2023-03-24T12:21:45;8.15;;;5.15;;
61572;SDS011;47465;43.094;12.434;2023-03-24T12:24:22;11.77;;;5.50;;
61572;SDS011;47465;43.094;12.434;2023-03-24T12:26:57;8.43;;;5.32;;
61572;SDS011;47465;43.094;12.434;2023-03-24T12:29:29;10.77;;;5.60;;
61572;SDS011;47465;43.094;12.434;2023-03-24T12:32:29;8.98;;;5.18;;
61572;SDS011;47465;43.094;12.434;2023-03-24T12:35:26;8.43;;;5.40;;
61572;SDS011;47465;43.094;12.434;2023-03-24T12:38:12;6.68;;;4.78;;
61572;SDS011;47465;43.094;12.434;2023-03-24T12:41:10;11.90;;;6.40;;
61572;SDS011;47465;43.094;12.434;2023-03-24T12:43:52;11.93;;;6.35;;
61572;SDS011;47465;43.094;12.434;2023-03-24T12:46:35;10.38;;;5.57;;
61572;SDS011;47465;43.094;12.434;2023-03-24T12:49:28;8.80;;;5.45;;
61572;SDS011;47465;43.094;12.434;2023-03-24T12:52:17;9.02;;;5.40;;
61572;SDS011;47465;43.094;12.434;2023-03-24T12:55:03;12.00;;;5.90;;
61572;SDS011;47465;43.094;12.434;2023-03-24T12:57:44;9.27;;;5.90;;
61572;SDS011;47465;43.094;12.434;2023-03-24T13:00:15;10.73;;;5.90;;
61572;SDS011;47465;43.094;12.434;2023-03-24T13:02:49;8.60;;;5.60;;
61572;SDS011;47465;43.094;12.434;2023-03-24T13:05:18;8.40;;;5.30;;
61572;SDS011;47465;43.094;12.434;2023-03-24T13:07:48;10.15;;;5.63;;
61572;SDS011;47465;43.094;12.434;2023-03-24T13:10:20;7.93;;;5.45;;
61572;SDS011;47465;43.094;12.434;2023-03-24T13:12:51;9.82;;;5.50;;
61572;SDS011;47465;43.094;12.434;2023-03-24T13:15:23;8.70;;;5.65;;
61572;SDS011;47465;43.094;12.434;2023-03-24T13:17:58;10.32;;;5.78;;
61572;SDS011;47465;43.094;12.434;2023-03-24T13:20:36;9.30;;;5.43;;
61572;SDS011;47465;43.094;12.434;2023-03-24T13:23:11;9.52;;;5.90;;
61572;SDS011;47465;43.094;12.434;2023-03-24T13:25:58;11.10;;;5.90;;
61572;SDS011;47465;43.094;12.434;2023-03-24T13:28:48;13.55;;;6.55;;
61572;SDS011;47465;43.094;12.434;2023-03-24T13:31:25;10.43;;;6.50;;
61572;SDS011;47465;43.094;12.434;2023-03-24T13:36:59;10.13;;;7.05;;
61572;SDS011;47465;43.094;12.434;2023-03-24T13:39:30;11.05;;;6.78;;
61572;SDS011;47465;43.094;12.434;2023-03-24T13:42:00;11.30;;;6.82;;
61572;SDS011;47465;43.094;12.434;2023-03-24T13:44:34;11.60;;;7.05;;
61572;SDS011;47465;43.094;12.434;2023-03-24T13:47:05;13.07;;;7.07;;
61572;SDS011;47465;43.094;12.434;2023-03-24T13:49:37;10.10;;;6.22;;
61572;SDS011;47465;43.094;12.434;2023-03-24T13:54:33;9.88;;;6.07;;
61572;SDS011;47465;43.094;12.434;2023-03-24T13:57:03;10.18;;;5.68;;
61572;SDS011;47465;43.094;12.434;2023-03-24T13:59:31;8.68;;;5.90;;
61572;SDS011;47465;43.094;12.434;2023-03-24T14:02:09;10.13;;;5.60;;
61572;SDS011;47465;43.094;12.434;2023-03-24T14:04:45;9.43;;;6.10;;
61572;SDS011;47465;43.094;12.434;2023-03-24T14:07:27;11.68;;;5.20;;
61572;SDS011;47465;43.094;12.434;2023-03-24T14:09:59;9.98;;;6.47;;
61572;SDS011;47465;43.094;12.434;2023-03-24T14:12:26;11.68;;;6.13;;
61572;SDS011;47465;43.094;12.434;2023-03-24T14:15:17;6.82;;;5.53;;
61572;SDS011;47465;43.094;12.434;2023-03-24T14:17:47;9.75;;;5.90;;
61572;SDS011;47465;43.094;12.434;2023-03-24T14:20:26;9.75;;;5.88;;
61572;SDS011;47465;43.094;12.434;2023-03-24T14:23:01;8.00;;;5.95;;
61572;SDS011;47465;43.094;12.434;2023-03-24T14:25:28;10.43;;;6.22;;
61572;SDS011;47465;43.094;12.434;2023-03-24T14:28:05;10.05;;;5.63;;
61572;SDS011;47465;43.094;12.434;2023-03-24T14:30:53;8.60;;;6.47;;
61572;SDS011;47465;43.094;12.434;2023-03-24T14:33:37;9.05;;;5.88;;
61572;SDS011;47465;43.094;12.434;2023-03-24T14:36:07;11.07;;;7.30;;
61572;SDS011;47465;43.094;12.434;2023-03-24T14:38:43;11.10;;;6.20;;
61572;SDS011;47465;43.094;12.434;2023-03-24T14:41:11;9.10;;;6.15;;
61572;SDS011;47465;43.094;12.434;2023-03-24T14:43:53;9.35;;;6.55;;
61572;SDS011;47465;43.094;12.434;2023-03-24T14:49:17;9.73;;;6.55;;
61572;SDS011;47465;43.094;12.434;2023-03-24T14:51:51;8.52;;;5.65;;
61572;SDS011;47465;43.094;12.434;2023-03-24T14:54:24;7.38;;;5.00;;
61572;SDS011;47465;43.094;12.434;2023-03-24T14:56:58;11.20;;;5.38;;
61572;SDS011;47465;43.094;12.434;2023-03-24T14:59:40;6.80;;;4.55;;
61572;SDS011;47465;43.094;12.434;2023-03-24T15:02:15;8.30;;;3.95;;
61572;SDS011;47465;43.094;12.434;2023-03-24T15:07:43;7.97;;;5.75;;
61572;SDS011;47465;43.094;12.434;2023-03-24T15:10:20;8.02;;;4.10;;
61572;SDS011;47465;43.094;12.434;2023-03-24T15:12:50;7.03;;;5.00;;
61572;SDS011;47465;43.094;12.434;2023-03-24T15:15:16;6.95;;;4.28;;
61572;SDS011;47465;43.094;12.434;2023-03-24T15:17:44;7.10;;;4.30;;
61572;SDS011;47465;43.094;12.434;2023-03-24T15:20:18;8.98;;;4.45;;
61572;SDS011;47465;43.094;12.434;2023-03-24T15:22:47;7.82;;;3.97;;